sensor_id;sensor_type;location;lat;lon;timestamp;P1;durP1;ratioP1;P2;durP2;ratioP2
50104;SDS011;47690;39.202;-77.198;2023-03-14T00:01:26;4.20;;;3.05;;
50104;SDS011;47690;39.202;-77.198;2023-03-14T00:03:57;3.53;;;3.00;;
50104;SDS011;47690;39.202;-77.198;2023-03-14T00:06:26;3.90;;;3.00;;
50104;SDS011;47690;39.202;-77.198;2023-03-14T00:08:56;3.28;;;2.97;;
50104;SDS011;47690;39.202;-77.198;2023-03-14T00:11:25;3.95;;;2.88;;
50104;SDS011;47690;39.202;-77.198;2023-03-14T00:13:54;3.80;;;3.03;;
50104;SDS011;47690;39.202;-77.198;2023-03-14T00:16:23;3.38;;;3.00;;
50104;SDS011;47690;39.202;-77.198;2023-03-14T00:18:52;4.07;;;3.05;;
50104;SDS011;47690;39.202;-77.198;2023-03-14T00:21:20;3.33;;;2.83;;
50104;SDS011;47690;39.202;-77.198;2023-03-14T00:23:49;4.18;;;3.33;;
50104;SDS011;47690;39.202;-77.198;2023-03-14T00:26:18;3.28;;;2.92;;
50104;SDS011;47690;39.202;-77.198;2023-03-14T00:28:52;4.30;;;3.00;;
50104;SDS011;47690;39.202;-77.198;2023-03-14T00:31:21;3.83;;;3.13;;
50104;SDS011;47690;39.202;-77.198;2023-03-14T00:33:51;3.40;;;2.80;;
50104;SDS011;47690;39.202;-77.198;2023-03-14T00:36:21;3.22;;;2.72;;
50104;SDS011;47690;39.202;-77.198;2023-03-14T00:38:50;4.10;;;3.30;;
50104;SDS011;47690;39.202;-77.198;2023-03-14T00:41:21;3.97;;;3.05;;
50104;SDS011;47690;39.202;-77.198;2023-03-14T00:43:51;3.83;;;2.85;;
50104;SDS011;47690;39.202;-77.198;2023-03-14T00:46:20;3.70;;;3.00;;
50104;SDS011;47690;39.202;-77.198;2023-03-14T00:48:48;3.47;;;3.08;;
50104;SDS011;47690;39.202;-77.198;2023-03-14T00:51:17;3.47;;;3.00;;
50104;SDS011;47690;39.202;-77.198;2023-03-14T00:53:45;4.35;;;3.58;;
50104;SDS011;47690;39.202;-77.198;2023-03-14T00:56:14;4.03;;;3.20;;
50104;SDS011;47690;39.202;-77.198;2023-03-14T00:58:43;3.67;;;3.28;;
50104;SDS011;47690;39.202;-77.198;2023-03-14T01:01:15;3.50;;;3.20;;
50104;SDS011;47690;39.202;-77.198;2023-03-14T01:03:46;4.10;;;3.40;;
50104;SDS011;47690;39.202;-77.198;2023-03-14T01:06:20;4.00;;;3.40;;
50104;SDS011;47690;39.202;-77.198;2023-03-14T01:08:55;3.70;;;3.30;;
50104;SDS011;47690;39.202;-77.198;2023-03-14T01:11:27;3.60;;;2.97;;
50104;SDS011;47690;39.202;-77.198;2023-03-14T01:14:00;3.93;;;3.40;;
50104;SDS011;47690;39.202;-77.198;2023-03-14T01:16:30;3.97;;;3.28;;
50104;SDS011;47690;39.202;-77.198;2023-03-14T01:19:01;3.95;;;3.20;;
50104;SDS011;47690;39.202;-77.198;2023-03-14T01:21:31;3.25;;;2.78;;
50104;SDS011;47690;39.202;-77.198;2023-03-14T01:24:02;3.20;;;2.70;;
50104;SDS011;47690;39.202;-77.198;2023-03-14T01:26:33;2.50;;;2.30;;
50104;SDS011;47690;39.202;-77.198;2023-03-14T01:29:05;2.90;;;2.47;;
50104;SDS011;47690;39.202;-77.198;2023-03-14T01:31:35;2.97;;;2.42;;
50104;SDS011;47690;39.202;-77.198;2023-03-14T01:34:04;3.10;;;2.45;;
50104;SDS011;47690;39.202;-77.198;2023-03-14T01:36:34;2.95;;;2.50;;
50104;SDS011;47690;39.202;-77.198;2023-03-14T01:39:04;2.53;;;2.20;;
50104;SDS011;47690;39.202;-77.198;2023-03-14T01:41:37;2.80;;;2.40;;
50104;SDS011;47690;39.202;-77.198;2023-03-14T01:44:10;2.20;;;2.00;;
50104;SDS011;47690;39.202;-77.198;2023-03-14T01:46:43;2.78;;;2.20;;
50104;SDS011;47690;39.202;-77.198;2023-03-14T01:49:26;2.70;;;2.35;;
50104;SDS011;47690;39.202;-77.198;2023-03-14T01:52:16;2.20;;;2.00;;
50104;SDS011;47690;39.202;-77.198;2023-03-14T01:55:02;2.22;;;2.03;;
50104;SDS011;47690;39.202;-77.198;2023-03-14T01:57:41;2.30;;;2.10;;
50104;SDS011;47690;39.202;-77.198;2023-03-14T02:00:17;2.28;;;2.08;;
50104;SDS011;47690;39.202;-77.198;2023-03-14T02:02:58;2.38;;;2.17;;
50104;SDS011;47690;39.202;-77.198;2023-03-14T02:08:12;2.25;;;2.05;;
50104;SDS011;47690;39.202;-77.198;2023-03-14T02:10:48;2.20;;;2.00;;
50104;SDS011;47690;39.202;-77.198;2023-03-14T02:13:25;2.38;;;2.00;;
50104;SDS011;47690;39.202;-77.198;2023-03-14T02:16:14;2.30;;;2.10;;
50104;SDS011;47690;39.202;-77.198;2023-03-14T02:19:02;2.30;;;2.03;;
50104;SDS011;47690;39.202;-77.198;2023-03-14T02:22:05;2.97;;;1.88;;
50104;SDS011;47690;39.202;-77.198;2023-03-14T02:25:03;2.13;;;1.92;;
50104;SDS011;47690;39.202;-77.198;2023-03-14T02:27:38;2.30;;;2.10;;
50104;SDS011;47690;39.202;-77.198;2023-03-14T02:30:17;2.78;;;2.30;;
50104;SDS011;47690;39.202;-77.198;2023-03-14T02:32:52;2.53;;;2.03;;
50104;SDS011;47690;39.202;-77.198;2023-03-14T02:35:36;2.50;;;2.28;;
50104;SDS011;47690;39.202;-77.198;2023-03-14T02:38:19;2.42;;;2.22;;
50104;SDS011;47690;39.202;-77.198;2023-03-14T02:41:08;2.70;;;2.28;;
50104;SDS011;47690;39.202;-77.198;2023-03-14T02:43:43;2.67;;;2.25;;
50104;SDS011;47690;39.202;-77.198;2023-03-14T02:46:14;2.38;;;2.15;;
50104;SDS011;47690;39.202;-77.198;2023-03-14T02:49:08;2.50;;;2.22;;
50104;SDS011;47690;39.202;-77.198;2023-03-14T02:51:38;3.10;;;2.40;;
50104;SDS011;47690;39.202;-77.198;2023-03-14T02:54:09;2.88;;;2.42;;
50104;SDS011;47690;39.202;-77.198;2023-03-14T02:56:39;2.55;;;2.20;;
50104;SDS011;47690;39.202;-77.198;2023-03-14T02:59:11;2.88;;;2.35;;
50104;SDS011;47690;39.202;-77.198;2023-03-14T03:01:48;2.88;;;2.40;;
50104;SDS011;47690;39.202;-77.198;2023-03-14T03:04:17;2.78;;;2.25;;
50104;SDS011;47690;39.202;-77.198;2023-03-14T03:06:46;2.72;;;2.13;;
50104;SDS011;47690;39.202;-77.198;2023-03-14T03:09:16;2.55;;;2.25;;
50104;SDS011;47690;39.202;-77.198;2023-03-14T03:11:45;2.20;;;2.00;;
50104;SDS011;47690;39.202;-77.198;2023-03-14T03:14:19;1.90;;;1.80;;
50104;SDS011;47690;39.202;-77.198;2023-03-14T03:16:48;2.20;;;2.00;;
50104;SDS011;47690;39.202;-77.198;2023-03-14T03:19:17;2.30;;;2.10;;
50104;SDS011;47690;39.202;-77.198;2023-03-14T03:21:47;2.45;;;2.00;;
50104;SDS011;47690;39.202;-77.198;2023-03-14T03:24:16;2.25;;;1.90;;
50104;SDS011;47690;39.202;-77.198;2023-03-14T03:26:45;2.40;;;2.10;;
50104;SDS011;47690;39.202;-77.198;2023-03-14T03:29:13;2.20;;;2.00;;
50104;SDS011;47690;39.202;-77.198;2023-03-14T03:31:42;2.08;;;1.90;;
50104;SDS011;47690;39.202;-77.198;2023-03-14T03:34:13;2.30;;;2.10;;
50104;SDS011;47690;39.202;-77.198;2023-03-14T03:36:42;2.22;;;1.95;;
50104;SDS011;47690;39.202;-77.198;2023-03-14T03:39:12;2.20;;;2.00;;
50104;SDS011;47690;39.202;-77.198;2023-03-14T03:41:42;3.72;;;2.00;;
50104;SDS011;47690;39.202;-77.198;2023-03-14T03:44:11;2.40;;;2.20;;
50104;SDS011;47690;39.202;-77.198;2023-03-14T03:46:41;2.35;;;2.15;;
50104;SDS011;47690;39.202;-77.198;2023-03-14T03:49:10;2.40;;;2.20;;
50104;SDS011;47690;39.202;-77.198;2023-03-14T03:51:39;2.30;;;2.10;;
50104;SDS011;47690;39.202;-77.198;2023-03-14T03:54:09;2.67;;;2.20;;
50104;SDS011;47690;39.202;-77.198;2023-03-14T03:56:41;2.60;;;2.20;;
50104;SDS011;47690;39.202;-77.198;2023-03-14T03:59:09;1.88;;;1.77;;
50104;SDS011;47690;39.202;-77.198;2023-03-14T04:01:39;2.13;;;1.92;;
50104;SDS011;47690;39.202;-77.198;2023-03-14T04:04:09;1.83;;;1.73;;
50104;SDS011;47690;39.202;-77.198;2023-03-14T04:06:39;2.20;;;2.00;;
50104;SDS011;47690;39.202;-77.198;2023-03-14T04:09:09;2.30;;;2.10;;
50104;SDS011;47690;39.202;-77.198;2023-03-14T04:11:46;2.03;;;1.83;;
50104;SDS011;47690;39.202;-77.198;2023-03-14T04:14:19;2.25;;;2.05;;
50104;SDS011;47690;39.202;-77.198;2023-03-14T04:16:56;2.53;;;2.33;;
50104;SDS011;47690;39.202;-77.198;2023-03-14T04:19:28;2.20;;;2.00;;
50104;SDS011;47690;39.202;-77.198;2023-03-14T04:21:59;2.20;;;2.00;;
50104;SDS011;47690;39.202;-77.198;2023-03-14T04:24:33;2.05;;;1.85;;
50104;SDS011;47690;39.202;-77.198;2023-03-14T04:27:02;2.15;;;1.90;;
50104;SDS011;47690;39.202;-77.198;2023-03-14T04:29:33;2.28;;;2.08;;
50104;SDS011;47690;39.202;-77.198;2023-03-14T04:32:01;1.98;;;1.85;;
50104;SDS011;47690;39.202;-77.198;2023-03-14T04:34:31;2.20;;;2.00;;
50104;SDS011;47690;39.202;-77.198;2023-03-14T04:37:00;2.10;;;1.90;;
50104;SDS011;47690;39.202;-77.198;2023-03-14T04:39:36;2.15;;;1.95;;
50104;SDS011;47690;39.202;-77.198;2023-03-14T04:42:15;2.25;;;2.05;;
50104;SDS011;47690;39.202;-77.198;2023-03-14T04:44:46;2.22;;;2.03;;
50104;SDS011;47690;39.202;-77.198;2023-03-14T04:47:20;2.10;;;1.90;;
50104;SDS011;47690;39.202;-77.198;2023-03-14T04:49:51;3.13;;;2.00;;
50104;SDS011;47690;39.202;-77.198;2023-03-14T04:52:21;2.08;;;1.88;;
50104;SDS011;47690;39.202;-77.198;2023-03-14T04:54:51;2.00;;;1.80;;
50104;SDS011;47690;39.202;-77.198;2023-03-14T04:57:21;2.45;;;2.10;;
50104;SDS011;47690;39.202;-77.198;2023-03-14T04:59:55;2.15;;;1.95;;
50104;SDS011;47690;39.202;-77.198;2023-03-14T05:02:44;1.70;;;1.60;;
50104;SDS011;47690;39.202;-77.198;2023-03-14T05:05:32;2.95;;;2.30;;
50104;SDS011;47690;39.202;-77.198;2023-03-14T05:08:37;2.50;;;2.10;;
50104;SDS011;47690;39.202;-77.198;2023-03-14T05:11:25;2.25;;;2.00;;
50104;SDS011;47690;39.202;-77.198;2023-03-14T05:14:19;2.28;;;2.08;;
50104;SDS011;47690;39.202;-77.198;2023-03-14T05:17:15;2.47;;;2.00;;
50104;SDS011;47690;39.202;-77.198;2023-03-14T05:20:15;2.13;;;1.92;;
50104;SDS011;47690;39.202;-77.198;2023-03-14T05:23:10;1.90;;;1.80;;
50104;SDS011;47690;39.202;-77.198;2023-03-14T05:25:54;1.98;;;1.80;;
50104;SDS011;47690;39.202;-77.198;2023-03-14T05:28:37;2.60;;;2.10;;
50104;SDS011;47690;39.202;-77.198;2023-03-14T05:31:31;2.30;;;2.10;;
50104;SDS011;47690;39.202;-77.198;2023-03-14T05:34:24;2.53;;;2.10;;
50104;SDS011;47690;39.202;-77.198;2023-03-14T05:37:25;2.63;;;2.20;;
50104;SDS011;47690;39.202;-77.198;2023-03-14T05:40:16;2.50;;;2.30;;
50104;SDS011;47690;39.202;-77.198;2023-03-14T05:43:05;2.72;;;2.20;;
50104;SDS011;47690;39.202;-77.198;2023-03-14T05:45:55;2.42;;;2.22;;
50104;SDS011;47690;39.202;-77.198;2023-03-14T05:48:45;2.28;;;2.08;;
50104;SDS011;47690;39.202;-77.198;2023-03-14T05:51:43;2.40;;;2.15;;
50104;SDS011;47690;39.202;-77.198;2023-03-14T05:54:37;2.35;;;2.15;;
50104;SDS011;47690;39.202;-77.198;2023-03-14T05:57:18;2.30;;;2.10;;
50104;SDS011;47690;39.202;-77.198;2023-03-14T06:00:04;2.10;;;1.90;;
50104;SDS011;47690;39.202;-77.198;2023-03-14T06:02:47;2.10;;;1.90;;
50104;SDS011;47690;39.202;-77.198;2023-03-14T06:05:22;2.38;;;2.10;;
50104;SDS011;47690;39.202;-77.198;2023-03-14T06:10:29;2.20;;;2.00;;
50104;SDS011;47690;39.202;-77.198;2023-03-14T06:12:59;2.30;;;2.10;;
50104;SDS011;47690;39.202;-77.198;2023-03-14T06:15:29;2.40;;;2.00;;
50104;SDS011;47690;39.202;-77.198;2023-03-14T06:17:58;2.30;;;2.10;;
50104;SDS011;47690;39.202;-77.198;2023-03-14T06:20:29;2.72;;;2.20;;
50104;SDS011;47690;39.202;-77.198;2023-03-14T06:23:00;2.30;;;2.10;;
50104;SDS011;47690;39.202;-77.198;2023-03-14T06:25:31;2.05;;;1.85;;
50104;SDS011;47690;39.202;-77.198;2023-03-14T06:28:01;2.20;;;2.00;;
50104;SDS011;47690;39.202;-77.198;2023-03-14T06:30:33;2.28;;;2.08;;
50104;SDS011;47690;39.202;-77.198;2023-03-14T06:33:02;2.40;;;2.20;;
50104;SDS011;47690;39.202;-77.198;2023-03-14T06:35:33;1.90;;;1.75;;
50104;SDS011;47690;39.202;-77.198;2023-03-14T06:38:03;2.42;;;1.98;;
50104;SDS011;47690;39.202;-77.198;2023-03-14T06:40:33;2.35;;;2.10;;
50104;SDS011;47690;39.202;-77.198;2023-03-14T06:43:11;2.10;;;1.90;;
50104;SDS011;47690;39.202;-77.198;2023-03-14T06:45:43;2.13;;;1.92;;
50104;SDS011;47690;39.202;-77.198;2023-03-14T06:48:12;2.70;;;2.10;;
50104;SDS011;47690;39.202;-77.198;2023-03-14T06:50:50;2.25;;;2.05;;
50104;SDS011;47690;39.202;-77.198;2023-03-14T06:53:21;3.17;;;2.13;;
50104;SDS011;47690;39.202;-77.198;2023-03-14T06:55:51;2.20;;;2.00;;
50104;SDS011;47690;39.202;-77.198;2023-03-14T06:58:20;2.20;;;2.00;;
50104;SDS011;47690;39.202;-77.198;2023-03-14T07:00:49;2.40;;;1.90;;
50104;SDS011;47690;39.202;-77.198;2023-03-14T07:03:23;2.10;;;1.90;;
50104;SDS011;47690;39.202;-77.198;2023-03-14T07:05:55;2.42;;;2.03;;
50104;SDS011;47690;39.202;-77.198;2023-03-14T07:08:25;2.20;;;2.00;;
50104;SDS011;47690;39.202;-77.198;2023-03-14T07:10:56;2.42;;;2.17;;
50104;SDS011;47690;39.202;-77.198;2023-03-14T07:13:28;2.30;;;2.10;;
50104;SDS011;47690;39.202;-77.198;2023-03-14T07:16:02;1.92;;;1.83;;
50104;SDS011;47690;39.202;-77.198;2023-03-14T07:18:32;2.47;;;2.28;;
50104;SDS011;47690;39.202;-77.198;2023-03-14T07:21:05;2.40;;;2.20;;
50104;SDS011;47690;39.202;-77.198;2023-03-14T07:23:37;2.08;;;1.88;;
50104;SDS011;47690;39.202;-77.198;2023-03-14T07:26:07;2.15;;;1.95;;
50104;SDS011;47690;39.202;-77.198;2023-03-14T07:28:43;2.65;;;2.20;;
50104;SDS011;47690;39.202;-77.198;2023-03-14T07:31:16;2.33;;;2.13;;
50104;SDS011;47690;39.202;-77.198;2023-03-14T07:33:46;2.40;;;1.98;;
50104;SDS011;47690;39.202;-77.198;2023-03-14T07:36:16;2.28;;;2.00;;
50104;SDS011;47690;39.202;-77.198;2023-03-14T07:38:46;2.15;;;1.95;;
50104;SDS011;47690;39.202;-77.198;2023-03-14T07:41:21;2.50;;;2.20;;
50104;SDS011;47690;39.202;-77.198;2023-03-14T07:44:17;2.30;;;2.03;;
50104;SDS011;47690;39.202;-77.198;2023-03-14T07:46:49;2.63;;;2.30;;
50104;SDS011;47690;39.202;-77.198;2023-03-14T07:49:20;2.42;;;2.15;;
50104;SDS011;47690;39.202;-77.198;2023-03-14T07:51:49;2.40;;;2.20;;
50104;SDS011;47690;39.202;-77.198;2023-03-14T07:54:19;2.55;;;2.30;;
50104;SDS011;47690;39.202;-77.198;2023-03-14T07:56:49;2.30;;;2.10;;
50104;SDS011;47690;39.202;-77.198;2023-03-14T07:59:18;2.53;;;2.05;;
50104;SDS011;47690;39.202;-77.198;2023-03-14T08:01:48;2.33;;;2.13;;
50104;SDS011;47690;39.202;-77.198;2023-03-14T08:04:17;2.60;;;2.20;;
50104;SDS011;47690;39.202;-77.198;2023-03-14T08:06:47;2.42;;;2.10;;
50104;SDS011;47690;39.202;-77.198;2023-03-14T08:09:17;2.53;;;2.10;;
50104;SDS011;47690;39.202;-77.198;2023-03-14T08:11:45;2.55;;;2.35;;
50104;SDS011;47690;39.202;-77.198;2023-03-14T08:14:15;2.35;;;2.00;;
50104;SDS011;47690;39.202;-77.198;2023-03-14T08:16:45;2.30;;;2.10;;
50104;SDS011;47690;39.202;-77.198;2023-03-14T08:19:15;2.40;;;2.20;;
50104;SDS011;47690;39.202;-77.198;2023-03-14T08:21:44;2.42;;;2.22;;
50104;SDS011;47690;39.202;-77.198;2023-03-14T08:24:14;2.20;;;2.00;;
50104;SDS011;47690;39.202;-77.198;2023-03-14T08:26:43;2.17;;;1.98;;
50104;SDS011;47690;39.202;-77.198;2023-03-14T08:29:13;2.20;;;2.00;;
50104;SDS011;47690;39.202;-77.198;2023-03-14T08:31:41;2.63;;;2.20;;
50104;SDS011;47690;39.202;-77.198;2023-03-14T08:34:11;2.20;;;2.00;;
50104;SDS011;47690;39.202;-77.198;2023-03-14T08:36:41;2.33;;;2.10;;
50104;SDS011;47690;39.202;-77.198;2023-03-14T08:39:14;2.20;;;2.00;;
50104;SDS011;47690;39.202;-77.198;2023-03-14T08:41:43;2.45;;;1.98;;
50104;SDS011;47690;39.202;-77.198;2023-03-14T08:44:12;2.53;;;2.28;;
50104;SDS011;47690;39.202;-77.198;2023-03-14T08:46:46;2.05;;;1.88;;
50104;SDS011;47690;39.202;-77.198;2023-03-14T08:49:16;2.38;;;2.17;;
50104;SDS011;47690;39.202;-77.198;2023-03-14T08:51:45;2.35;;;2.10;;
50104;SDS011;47690;39.202;-77.198;2023-03-14T08:54:16;2.50;;;2.20;;
50104;SDS011;47690;39.202;-77.198;2023-03-14T08:56:47;2.28;;;2.08;;
50104;SDS011;47690;39.202;-77.198;2023-03-14T08:59:16;2.40;;;2.08;;
50104;SDS011;47690;39.202;-77.198;2023-03-14T09:01:47;2.67;;;2.00;;
50104;SDS011;47690;39.202;-77.198;2023-03-14T09:04:16;2.05;;;1.85;;
50104;SDS011;47690;39.202;-77.198;2023-03-14T09:06:46;2.10;;;1.92;;
50104;SDS011;47690;39.202;-77.198;2023-03-14T09:09:16;2.55;;;2.28;;
50104;SDS011;47690;39.202;-77.198;2023-03-14T09:11:45;2.13;;;1.92;;
50104;SDS011;47690;39.202;-77.198;2023-03-14T09:14:15;2.53;;;2.20;;
50104;SDS011;47690;39.202;-77.198;2023-03-14T09:16:45;2.17;;;1.98;;
50104;SDS011;47690;39.202;-77.198;2023-03-14T09:19:16;2.20;;;2.00;;
50104;SDS011;47690;39.202;-77.198;2023-03-14T09:21:46;2.55;;;2.17;;
50104;SDS011;47690;39.202;-77.198;2023-03-14T09:24:16;2.28;;;2.08;;
50104;SDS011;47690;39.202;-77.198;2023-03-14T09:26:46;2.50;;;2.30;;
50104;SDS011;47690;39.202;-77.198;2023-03-14T09:29:17;2.40;;;2.20;;
50104;SDS011;47690;39.202;-77.198;2023-03-14T09:31:47;2.40;;;2.08;;
50104;SDS011;47690;39.202;-77.198;2023-03-14T09:34:17;2.38;;;2.17;;
50104;SDS011;47690;39.202;-77.198;2023-03-14T09:36:50;2.30;;;1.90;;
50104;SDS011;47690;39.202;-77.198;2023-03-14T09:39:19;2.15;;;1.95;;
50104;SDS011;47690;39.202;-77.198;2023-03-14T09:41:50;2.15;;;1.95;;
50104;SDS011;47690;39.202;-77.198;2023-03-14T09:44:29;2.58;;;2.35;;
50104;SDS011;47690;39.202;-77.198;2023-03-14T09:47:02;2.70;;;2.20;;
50104;SDS011;47690;39.202;-77.198;2023-03-14T09:49:39;2.30;;;1.98;;
50104;SDS011;47690;39.202;-77.198;2023-03-14T09:52:17;2.20;;;1.90;;
50104;SDS011;47690;39.202;-77.198;2023-03-14T09:55:01;2.38;;;2.00;;
50104;SDS011;47690;39.202;-77.198;2023-03-14T09:57:33;2.33;;;2.13;;
50104;SDS011;47690;39.202;-77.198;2023-03-14T10:00:05;2.05;;;1.88;;
50104;SDS011;47690;39.202;-77.198;2023-03-14T10:02:54;2.33;;;2.13;;
50104;SDS011;47690;39.202;-77.198;2023-03-14T10:05:30;2.20;;;2.00;;
50104;SDS011;47690;39.202;-77.198;2023-03-14T10:08:00;2.55;;;2.15;;
50104;SDS011;47690;39.202;-77.198;2023-03-14T10:10:30;2.20;;;2.00;;
50104;SDS011;47690;39.202;-77.198;2023-03-14T10:13:05;2.10;;;1.95;;
50104;SDS011;47690;39.202;-77.198;2023-03-14T10:15:55;2.03;;;1.85;;
50104;SDS011;47690;39.202;-77.198;2023-03-14T10:23:45;1.90;;;1.80;;
50104;SDS011;47690;39.202;-77.198;2023-03-14T10:26:18;2.10;;;1.95;;
50104;SDS011;47690;39.202;-77.198;2023-03-14T10:29:03;1.65;;;1.55;;
50104;SDS011;47690;39.202;-77.198;2023-03-14T10:31:49;1.90;;;1.80;;
50104;SDS011;47690;39.202;-77.198;2023-03-14T10:34:22;2.50;;;2.10;;
50104;SDS011;47690;39.202;-77.198;2023-03-14T10:36:56;2.20;;;2.00;;
50104;SDS011;47690;39.202;-77.198;2023-03-14T10:39:30;2.13;;;1.92;;
50104;SDS011;47690;39.202;-77.198;2023-03-14T10:42:05;1.90;;;1.80;;
50104;SDS011;47690;39.202;-77.198;2023-03-14T10:45:04;2.10;;;1.90;;
50104;SDS011;47690;39.202;-77.198;2023-03-14T10:47:48;1.92;;;1.77;;
50104;SDS011;47690;39.202;-77.198;2023-03-14T10:50:27;1.85;;;1.75;;
50104;SDS011;47690;39.202;-77.198;2023-03-14T10:53:01;2.13;;;1.90;;
50104;SDS011;47690;39.202;-77.198;2023-03-14T10:58:24;2.03;;;1.90;;
50104;SDS011;47690;39.202;-77.198;2023-03-14T11:01:06;1.92;;;1.83;;
50104;SDS011;47690;39.202;-77.198;2023-03-14T11:03:38;2.33;;;1.92;;
50104;SDS011;47690;39.202;-77.198;2023-03-14T11:06:18;1.90;;;1.80;;
50104;SDS011;47690;39.202;-77.198;2023-03-14T11:15:01;1.88;;;1.77;;
50104;SDS011;47690;39.202;-77.198;2023-03-14T11:18:13;1.85;;;1.75;;
50104;SDS011;47690;39.202;-77.198;2023-03-14T11:24:02;1.80;;;1.70;;
50104;SDS011;47690;39.202;-77.198;2023-03-14T11:27:15;1.80;;;1.70;;
50104;SDS011;47690;39.202;-77.198;2023-03-14T11:35:23;1.85;;;1.70;;
50104;SDS011;47690;39.202;-77.198;2023-03-14T11:38:10;1.80;;;1.70;;
50104;SDS011;47690;39.202;-77.198;2023-03-14T11:40:48;2.17;;;1.95;;
50104;SDS011;47690;39.202;-77.198;2023-03-14T11:43:26;1.60;;;1.50;;
50104;SDS011;47690;39.202;-77.198;2023-03-14T11:46:03;1.60;;;1.50;;
50104;SDS011;47690;39.202;-77.198;2023-03-14T11:48:38;1.63;;;1.52;;
50104;SDS011;47690;39.202;-77.198;2023-03-14T11:51:50;1.58;;;1.50;;
50104;SDS011;47690;39.202;-77.198;2023-03-14T11:54:22;1.70;;;1.60;;
50104;SDS011;47690;39.202;-77.198;2023-03-14T11:57:14;1.30;;;1.30;;
50104;SDS011;47690;39.202;-77.198;2023-03-14T12:02:35;1.50;;;1.48;;
50104;SDS011;47690;39.202;-77.198;2023-03-14T12:10:46;1.65;;;1.55;;
50104;SDS011;47690;39.202;-77.198;2023-03-14T12:13:30;1.70;;;1.60;;
50104;SDS011;47690;39.202;-77.198;2023-03-14T12:16:49;1.38;;;1.33;;
50104;SDS011;47690;39.202;-77.198;2023-03-14T12:19:41;1.63;;;1.52;;
50104;SDS011;47690;39.202;-77.198;2023-03-14T12:24:36;1.60;;;1.50;;
50104;SDS011;47690;39.202;-77.198;2023-03-14T12:27:10;1.58;;;1.48;;
50104;SDS011;47690;39.202;-77.198;2023-03-14T12:32:39;1.48;;;1.38;;
50104;SDS011;47690;39.202;-77.198;2023-03-14T12:43:44;1.50;;;1.40;;
50104;SDS011;47690;39.202;-77.198;2023-03-14T12:46:23;1.70;;;1.60;;
50104;SDS011;47690;39.202;-77.198;2023-03-14T12:51:38;1.50;;;1.40;;
50104;SDS011;47690;39.202;-77.198;2023-03-14T12:54:25;1.40;;;1.40;;
50104;SDS011;47690;39.202;-77.198;2023-03-14T12:59:45;1.27;;;1.20;;
50104;SDS011;47690;39.202;-77.198;2023-03-14T13:02:37;1.50;;;1.50;;
50104;SDS011;47690;39.202;-77.198;2023-03-14T13:05:13;1.70;;;1.60;;
50104;SDS011;47690;39.202;-77.198;2023-03-14T13:10:23;1.60;;;1.50;;
50104;SDS011;47690;39.202;-77.198;2023-03-14T13:12:57;1.50;;;1.40;;
50104;SDS011;47690;39.202;-77.198;2023-03-14T13:15:31;1.17;;;1.17;;
50104;SDS011;47690;39.202;-77.198;2023-03-14T13:18:17;1.10;;;1.10;;
50104;SDS011;47690;39.202;-77.198;2023-03-14T13:20:55;1.40;;;1.40;;
50104;SDS011;47690;39.202;-77.198;2023-03-14T13:26:37;1.30;;;1.30;;
50104;SDS011;47690;39.202;-77.198;2023-03-14T13:29:22;1.20;;;1.20;;
50104;SDS011;47690;39.202;-77.198;2023-03-14T13:31:56;1.00;;;1.00;;
50104;SDS011;47690;39.202;-77.198;2023-03-14T13:34:32;1.33;;;1.33;;
50104;SDS011;47690;39.202;-77.198;2023-03-14T13:37:02;1.30;;;1.30;;
50104;SDS011;47690;39.202;-77.198;2023-03-14T13:39:31;1.40;;;1.30;;
50104;SDS011;47690;39.202;-77.198;2023-03-14T13:42:01;1.73;;;1.63;;
50104;SDS011;47690;39.202;-77.198;2023-03-14T13:44:36;1.60;;;1.50;;
50104;SDS011;47690;39.202;-77.198;2023-03-14T13:47:25;1.30;;;1.30;;
50104;SDS011;47690;39.202;-77.198;2023-03-14T13:49:58;1.30;;;1.30;;
50104;SDS011;47690;39.202;-77.198;2023-03-14T13:52:30;1.40;;;1.30;;
50104;SDS011;47690;39.202;-77.198;2023-03-14T13:55:12;1.30;;;1.30;;
50104;SDS011;47690;39.202;-77.198;2023-03-14T13:57:52;1.33;;;1.30;;
50104;SDS011;47690;39.202;-77.198;2023-03-14T14:00:25;1.30;;;1.30;;
50104;SDS011;47690;39.202;-77.198;2023-03-14T14:03:01;1.25;;;1.25;;
50104;SDS011;47690;39.202;-77.198;2023-03-14T14:05:32;1.40;;;1.30;;
50104;SDS011;47690;39.202;-77.198;2023-03-14T14:08:06;1.52;;;1.42;;
50104;SDS011;47690;39.202;-77.198;2023-03-14T14:10:36;1.60;;;1.50;;
50104;SDS011;47690;39.202;-77.198;2023-03-14T14:13:13;1.60;;;1.50;;
50104;SDS011;47690;39.202;-77.198;2023-03-14T14:15:51;1.48;;;1.38;;
50104;SDS011;47690;39.202;-77.198;2023-03-14T14:18:29;1.40;;;1.30;;
50104;SDS011;47690;39.202;-77.198;2023-03-14T14:21:02;1.58;;;1.48;;
50104;SDS011;47690;39.202;-77.198;2023-03-14T14:23:32;1.20;;;1.20;;
50104;SDS011;47690;39.202;-77.198;2023-03-14T14:26:04;1.23;;;1.23;;
50104;SDS011;47690;39.202;-77.198;2023-03-14T14:28:36;1.85;;;1.52;;
50104;SDS011;47690;39.202;-77.198;2023-03-14T14:34:00;1.30;;;1.30;;
50104;SDS011;47690;39.202;-77.198;2023-03-14T14:36:39;1.30;;;1.30;;
50104;SDS011;47690;39.202;-77.198;2023-03-14T14:41:50;1.73;;;1.63;;
50104;SDS011;47690;39.202;-77.198;2023-03-14T14:44:32;1.40;;;1.40;;
50104;SDS011;47690;39.202;-77.198;2023-03-14T14:47:04;1.33;;;1.30;;
50104;SDS011;47690;39.202;-77.198;2023-03-14T14:49:34;1.58;;;1.48;;
50104;SDS011;47690;39.202;-77.198;2023-03-14T14:52:15;1.70;;;1.60;;
50104;SDS011;47690;39.202;-77.198;2023-03-14T14:54:53;1.40;;;1.40;;
50104;SDS011;47690;39.202;-77.198;2023-03-14T14:57:27;1.20;;;1.20;;
50104;SDS011;47690;39.202;-77.198;2023-03-14T15:00:05;1.60;;;1.50;;
50104;SDS011;47690;39.202;-77.198;2023-03-14T15:02:48;1.55;;;1.45;;
50104;SDS011;47690;39.202;-77.198;2023-03-14T15:05:23;1.42;;;1.33;;
50104;SDS011;47690;39.202;-77.198;2023-03-14T15:07:55;1.40;;;1.40;;
50104;SDS011;47690;39.202;-77.198;2023-03-14T15:10:26;1.40;;;1.30;;
50104;SDS011;47690;39.202;-77.198;2023-03-14T15:12:58;1.20;;;1.20;;
50104;SDS011;47690;39.202;-77.198;2023-03-14T15:15:31;1.48;;;1.38;;
50104;SDS011;47690;39.202;-77.198;2023-03-14T15:18:01;1.20;;;1.20;;
50104;SDS011;47690;39.202;-77.198;2023-03-14T15:20:29;1.33;;;1.30;;
50104;SDS011;47690;39.202;-77.198;2023-03-14T15:22:59;1.20;;;1.20;;
50104;SDS011;47690;39.202;-77.198;2023-03-14T15:25:29;1.35;;;1.35;;
50104;SDS011;47690;39.202;-77.198;2023-03-14T15:28:19;1.30;;;1.20;;
50104;SDS011;47690;39.202;-77.198;2023-03-14T15:30:55;1.48;;;1.40;;
50104;SDS011;47690;39.202;-77.198;2023-03-14T15:33:26;1.60;;;1.50;;
50104;SDS011;47690;39.202;-77.198;2023-03-14T15:35:57;1.67;;;1.58;;
50104;SDS011;47690;39.202;-77.198;2023-03-14T15:38:29;1.50;;;1.40;;
50104;SDS011;47690;39.202;-77.198;2023-03-14T15:40:58;1.50;;;1.40;;
50104;SDS011;47690;39.202;-77.198;2023-03-14T15:43:28;1.60;;;1.50;;
50104;SDS011;47690;39.202;-77.198;2023-03-14T15:45:58;1.48;;;1.38;;
50104;SDS011;47690;39.202;-77.198;2023-03-14T15:48:29;1.30;;;1.30;;
50104;SDS011;47690;39.202;-77.198;2023-03-14T15:51:01;1.60;;;1.50;;
50104;SDS011;47690;39.202;-77.198;2023-03-14T15:53:30;1.20;;;1.20;;
50104;SDS011;47690;39.202;-77.198;2023-03-14T15:55:59;1.67;;;1.58;;
50104;SDS011;47690;39.202;-77.198;2023-03-14T15:58:29;1.40;;;1.35;;
50104;SDS011;47690;39.202;-77.198;2023-03-14T16:01:02;1.58;;;1.48;;
50104;SDS011;47690;39.202;-77.198;2023-03-14T16:03:32;1.50;;;1.40;;
50104;SDS011;47690;39.202;-77.198;2023-03-14T16:06:02;1.35;;;1.35;;
50104;SDS011;47690;39.202;-77.198;2023-03-14T16:08:33;1.40;;;1.30;;
50104;SDS011;47690;39.202;-77.198;2023-03-14T16:11:02;1.55;;;1.48;;
50104;SDS011;47690;39.202;-77.198;2023-03-14T16:13:31;1.20;;;1.20;;